Time;durP1;ratioP1;P1;durP2;ratioP2;P2;SDS_P1;SDS_P2;PMS_P1;PMS_P2;Temp;Humidity;BMP_temperature;BMP_pressure;BME280_temperature;BME280_humidity;BME280_pressure;Samples;Min_cycle;Max_cycle;Signal;HPM_P1;HPM_P2
2022/03/08 00:02:09;;;;;;;15.23;8.27;;;1.10;99.90;;;;;;5085015;28;20466;-74
2022/03/08 00:04:35;;;;;;;12.70;7.85;;;1.00;99.90;;;;;;5067280;28;20041;-75
2022/03/08 00:07:01;;;;;;;13.63;7.85;;;1.00;99.90;;;;;;5067022;28;20126;-74
2022/03/08 00:09:28;;;;;;;14.20;7.90;;;1.00;99.90;;;;;;5082971;28;20041;-75
2022/03/08 00:11:53;;;;;;;14.70;8.60;;;1.00;99.90;;;;;;5067530;28;20048;-74
2022/03/08 00:14:19;;;;;;;14.13;8.10;;;1.00;99.90;;;;;;5066633;28;20044;-75
2022/03/08 00:16:45;;;;;;;11.68;7.70;;;1.00;99.90;;;;;;5072116;28;20071;-75
2022/03/08 00:19:14;;;;;;;13.13;8.00;;;1.00;99.90;;;;;;5076643;28;20044;-74
2022/03/08 00:21:41;;;;;;;12.70;7.28;;;1.00;99.90;;;;;;5068456;28;20300;-74
2022/03/08 00:24:07;;;;;;;14.95;8.10;;;0.90;99.90;;;;;;5073142;28;20041;-74
2022/03/08 00:26:33;;;;;;;17.38;8.43;;;0.90;99.90;;;;;;5070796;28;20049;-74
2022/03/08 00:28:59;;;;;;;14.60;8.07;;;0.90;99.90;;;;;;5056893;28;20032;-75
2022/03/08 00:31:25;;;;;;;14.63;8.00;;;0.80;99.90;;;;;;5085509;28;20390;-75
2022/03/08 00:33:51;;;;;;;15.32;8.20;;;0.80;99.90;;;;;;5085491;28;20546;-74
2022/03/08 00:36:16;;;;;;;14.18;8.27;;;0.70;99.90;;;;;;5069558;28;20067;-74
2022/03/08 00:38:42;;;;;;;12.70;8.10;;;0.70;99.90;;;;;;5057164;28;20071;-74
2022/03/08 00:41:08;;;;;;;17.42;8.50;;;0.70;99.90;;;;;;5067186;28;20108;-74
2022/03/08 00:43:34;;;;;;;15.23;8.60;;;0.70;99.90;;;;;;5065235;28;20068;-74
2022/03/08 00:46:00;;;;;;;13.50;9.02;;;0.60;99.90;;;;;;5050032;28;20040;-75
2022/03/08 00:48:26;;;;;;;16.02;8.90;;;0.60;99.90;;;;;;5080363;28;20090;-74
2022/03/08 00:50:52;;;;;;;15.85;8.95;;;0.50;99.90;;;;;;5066584;28;20052;-75
2022/03/08 00:53:17;;;;;;;17.10;9.90;;;0.50;99.90;;;;;;5070717;28;20056;-74
2022/03/08 00:55:43;;;;;;;16.10;8.85;;;0.50;99.90;;;;;;5067454;28;20041;-74
2022/03/08 00:58:09;;;;;;;16.05;9.60;;;0.50;99.90;;;;;;5085217;28;20048;-75
2022/03/08 01:00:37;;;;;;;15.07;9.20;;;0.40;99.90;;;;;;5066671;28;20100;-74
2022/03/08 01:03:03;;;;;;;13.38;8.07;;;0.40;99.90;;;;;;5084204;28;20056;-74
2022/03/08 01:05:31;;;;;;;16.17;9.45;;;0.40;99.90;;;;;;5071824;28;20058;-75
2022/03/08 01:07:57;;;;;;;14.18;8.35;;;0.40;99.90;;;;;;5087185;28;20387;-75
2022/03/08 01:10:24;;;;;;;13.15;8.07;;;0.30;99.90;;;;;;5080314;28;20036;-74
2022/03/08 01:12:52;;;;;;;13.27;8.25;;;0.30;99.90;;;;;;5067894;28;20127;-75
2022/03/08 01:15:19;;;;;;;12.18;8.38;;;0.30;99.90;;;;;;5068978;28;20040;-74
2022/03/08 01:17:45;;;;;;;13.15;8.55;;;0.30;99.90;;;;;;5064256;28;20036;-74
2022/03/08 01:20:11;;;;;;;14.45;8.38;;;0.20;99.90;;;;;;5084748;28;20116;-75
2022/03/08 01:22:37;;;;;;;15.15;8.27;;;0.20;99.90;;;;;;5070254;28;20067;-74
2022/03/08 01:25:04;;;;;;;15.13;8.95;;;0.20;99.90;;;;;;5085215;28;20036;-74
2022/03/08 01:27:30;;;;;;;16.05;9.10;;;0.20;99.90;;;;;;5083668;28;20040;-73
2022/03/08 01:29:56;;;;;;;14.85;9.00;;;0.20;99.90;;;;;;5083250;28;20055;-75
2022/03/08 01:32:22;;;;;;;20.27;10.52;;;0.20;99.90;;;;;;5076063;28;20037;-73
2022/03/08 01:34:48;;;;;;;14.60;8.77;;;0.10;99.90;;;;;;5085009;28;20040;-73
2022/03/08 01:37:13;;;;;;;15.88;9.02;;;0.10;99.90;;;;;;5084493;28;20475;-75
2022/03/08 01:39:39;;;;;;;15.32;8.68;;;0.10;99.90;;;;;;5085800;28;20044;-75
2022/03/08 01:42:14;;;;;;;14.98;9.23;;;0.10;99.90;;;;;;5074908;28;20033;-75
2022/03/08 01:44:41;;;;;;;15.73;8.93;;;0.10;99.90;;;;;;5063047;28;20041;-74
2022/03/08 01:47:11;;;;;;;15.80;9.25;;;0.10;99.90;;;;;;5074488;28;20032;-74
2022/03/08 01:49:37;;;;;;;;;;;0.10;99.90;;;;;;5067523;28;20127;-72
2022/03/08 01:52:03;;;;;;;16.25;9.13;;;0.00;99.90;;;;;;5083504;28;19923;-75
2022/03/08 01:54:30;;;;;;;18.63;9.48;;;0.10;99.90;;;;;;5063729;28;20544;-73
2022/03/08 01:56:55;;;;;;;13.95;9.02;;;0.00;99.90;;;;;;5071184;28;20041;-75
2022/03/08 01:59:21;;;;;;;15.93;9.57;;;0.00;99.90;;;;;;5084580;28;20055;-75
2022/03/08 02:01:47;;;;;;;16.48;9.45;;;0.00;99.90;;;;;;5082601;28;20064;-73
2022/03/08 02:04:12;;;;;;;17.40;10.10;;;0.00;99.90;;;;;;5067174;28;20045;-72
2022/03/08 02:06:38;;;;;;;17.25;10.18;;;0.00;99.90;;;;;;5084567;28;20045;-75
2022/03/08 02:09:04;;;;;;;20.17;10.60;;;0.00;99.90;;;;;;5067535;28;20048;-74
2022/03/08 02:11:30;;;;;;;17.77;10.60;;;0.00;99.90;;;;;;5084134;28;20068;-73
2022/03/08 02:13:56;;;;;;;18.92;10.40;;;0.00;99.90;;;;;;5060047;28;20456;-74
2022/03/08 02:16:22;;;;;;;15.27;9.80;;;0.00;99.90;;;;;;5063766;28;20124;-74
2022/03/08 02:18:47;;;;;;;17.65;10.50;;;0.00;99.90;;;;;;5066523;28;20033;-73
2022/03/08 02:21:13;;;;;;;17.45;10.73;;;0.00;99.90;;;;;;5047413;28;20128;-73
2022/03/08 02:23:39;;;;;;;19.85;11.25;;;0.00;99.90;;;;;;5061658;28;20048;-75
2022/03/08 02:26:04;;;;;;;18.40;10.57;;;-0.10;99.90;;;;;;5083046;28;20129;-75
2022/03/08 02:28:30;;;;;;;18.00;10.73;;;-0.10;99.90;;;;;;5047246;28;20048;-74
2022/03/08 02:30:56;;;;;;;19.92;10.73;;;-0.10;99.90;;;;;;5062367;28;20096;-75
2022/03/08 02:33:22;;;;;;;17.95;10.85;;;-0.10;99.90;;;;;;5079578;28;20037;-75
2022/03/08 02:35:48;;;;;;;21.63;11.88;;;-0.10;99.90;;;;;;5096102;28;20029;-72
2022/03/08 02:38:14;;;;;;;19.00;10.85;;;-0.20;99.90;;;;;;5081140;28;20048;-75
2022/03/08 02:40:41;;;;;;;20.60;11.50;;;-0.20;99.90;;;;;;5078076;28;20041;-74
2022/03/08 02:43:10;;;;;;;17.52;10.90;;;-0.10;99.90;;;;;;5078037;28;20049;-74
2022/03/08 02:45:36;;;;;;;19.92;11.07;;;-0.20;99.90;;;;;;5095728;28;20094;-75
2022/03/08 02:48:02;;;;;;;19.73;11.25;;;-0.20;99.90;;;;;;5067962;28;20036;-73
2022/03/08 02:50:28;;;;;;;20.60;11.57;;;-0.20;99.90;;;;;;5068650;28;20488;-74
2022/03/08 02:52:55;;;;;;;19.27;11.32;;;-0.20;99.90;;;;;;5079801;28;20101;-73
2022/03/08 02:55:23;;;;;;;20.42;11.90;;;-0.20;99.90;;;;;;5070643;28;20439;-73
2022/03/08 02:57:50;;;;;;;19.67;11.65;;;-0.20;99.90;;;;;;5086156;28;20570;-74
2022/03/08 03:00:17;;;;;;;19.33;11.07;;;-0.20;99.90;;;;;;5069109;28;20033;-74
2022/03/08 03:02:43;;;;;;;19.67;11.60;;;-0.20;99.90;;;;;;5065142;28;20123;-73
2022/03/08 03:05:10;;;;;;;24.55;12.50;;;-0.20;99.90;;;;;;5093036;28;20062;-74
2022/03/08 03:07:36;;;;;;;20.08;11.80;;;-0.20;99.90;;;;;;5100441;28;20043;-73
2022/03/08 03:10:05;;;;;;;20.70;12.50;;;-0.30;99.90;;;;;;5067208;28;20045;-73
2022/03/08 03:12:31;;;;;;;20.85;11.40;;;-0.20;99.90;;;;;;5067991;28;20049;-73
2022/03/08 03:14:57;;;;;;;21.05;12.23;;;-0.30;99.90;;;;;;5082930;28;20029;-73
2022/03/08 03:17:23;;;;;;;19.88;11.98;;;-0.30;99.90;;;;;;5048892;28;20083;-74
2022/03/08 03:19:48;;;;;;;21.63;12.63;;;-0.30;99.90;;;;;;5067390;28;20052;-74
2022/03/08 03:22:15;;;;;;;20.67;12.25;;;-0.30;99.90;;;;;;5069502;28;20037;-75
2022/03/08 03:24:41;;;;;;;21.50;13.60;;;-0.30;99.90;;;;;;5087048;28;20040;-75
2022/03/08 03:27:06;;;;;;;23.23;13.50;;;-0.30;99.90;;;;;;5087603;28;20036;-75
2022/03/08 03:29:32;;;;;;;25.00;12.55;;;-0.30;99.90;;;;;;5065551;28;20044;-75
2022/03/08 03:31:58;;;;;;;22.58;12.80;;;-0.40;99.90;;;;;;5087061;28;20036;-73
2022/03/08 03:34:23;;;;;;;23.17;13.50;;;-0.30;99.90;;;;;;5069905;28;20042;-74
2022/03/08 03:36:49;;;;;;;22.15;12.27;;;-0.30;99.90;;;;;;5053158;28;20083;-74
2022/03/08 03:39:15;;;;;;;22.55;13.68;;;-0.40;99.90;;;;;;5058547;28;20055;-75
2022/03/08 03:41:40;;;;;;;22.98;13.25;;;-0.40;99.90;;;;;;5084041;28;20097;-74
2022/03/08 03:44:06;;;;;;;23.02;13.35;;;-0.40;99.90;;;;;;5029820;28;20082;-73
2022/03/08 03:46:32;;;;;;;23.23;13.52;;;-0.40;99.90;;;;;;5063592;28;20049;-73
2022/03/08 03:48:57;;;;;;;24.50;13.30;;;-0.50;99.90;;;;;;5078893;28;20045;-73
2022/03/08 03:51:24;;;;;;;25.48;14.20;;;-0.40;99.90;;;;;;5080066;28;20064;-75
2022/03/08 03:53:50;;;;;;;25.20;14.48;;;-0.40;99.90;;;;;;5080837;28;20037;-74
2022/03/08 03:56:16;;;;;;;22.95;13.95;;;-0.50;99.90;;;;;;5094436;28;20484;-75
2022/03/08 03:58:41;;;;;;;21.58;13.18;;;-0.40;99.90;;;;;;5087619;28;20043;-74
2022/03/08 04:01:07;;;;;;;23.05;14.20;;;-0.40;99.90;;;;;;5069461;28;20033;-75
2022/03/08 04:03:33;;;;;;;22.95;13.98;;;-0.40;99.90;;;;;;5100372;28;20083;-73
2022/03/08 04:05:58;;;;;;;25.90;14.52;;;-0.50;99.90;;;;;;5099406;28;20037;-73
2022/03/08 04:08:24;;;;;;;27.25;15.00;;;-0.50;99.90;;;;;;5082715;28;20041;-75
2022/03/08 04:10:51;;;;;;;25.75;14.63;;;-0.50;99.90;;;;;;5053277;28;20052;-75
2022/03/08 04:13:17;;;;;;;24.60;15.40;;;-0.50;99.90;;;;;;5064746;28;20167;-75
2022/03/08 04:15:43;;;;;;;24.58;14.73;;;-0.50;99.90;;;;;;5099327;28;20062;-75
2022/03/08 04:18:09;;;;;;;24.83;14.20;;;-0.50;99.90;;;;;;5075176;28;20498;-75
2022/03/08 04:20:35;;;;;;;26.08;15.27;;;-0.50;99.90;;;;;;5078119;28;20037;-73
2022/03/08 04:23:00;;;;;;;22.63;14.23;;;-0.50;99.90;;;;;;5072767;28;20044;-73
2022/03/08 04:25:26;;;;;;;25.08;15.43;;;-0.50;99.90;;;;;;5068426;28;20036;-73
2022/03/08 04:27:52;;;;;;;27.95;15.48;;;-0.50;99.90;;;;;;5084993;28;20051;-73
2022/03/08 04:30:18;;;;;;;24.92;15.23;;;-0.60;99.90;;;;;;5066585;28;20045;-73
2022/03/08 04:32:44;;;;;;;25.02;14.65;;;-0.60;99.90;;;;;;5064192;28;20041;-74
2022/03/08 04:35:11;;;;;;;25.10;14.82;;;-0.60;99.90;;;;;;5086615;28;20063;-73
2022/03/08 04:37:37;;;;;;;24.98;15.23;;;-0.60;99.90;;;;;;5080010;28;20037;-72
2022/03/08 04:40:07;;;;;;;25.63;15.35;;;-0.60;99.90;;;;;;5039492;28;20060;-74
2022/03/08 04:42:33;;;;;;;25.20;15.50;;;-0.60;99.90;;;;;;5097789;28;20048;-74
2022/03/08 04:44:59;;;;;;;27.25;15.27;;;-0.60;99.90;;;;;;5064818;28;20083;-74
2022/03/08 04:47:24;;;;;;;29.80;16.38;;;-0.70;99.90;;;;;;5081829;28;20041;-73
2022/03/08 04:49:50;;;;;;;26.55;16.42;;;-0.70;99.90;;;;;;5070297;28;20045;-73
2022/03/08 04:52:16;;;;;;;26.58;16.40;;;-0.70;99.90;;;;;;5078475;28;20041;-72
2022/03/08 04:54:41;;;;;;;29.98;16.67;;;-0.70;99.90;;;;;;5081291;28;20059;-75
2022/03/08 04:57:07;;;;;;;29.48;16.77;;;-0.70;99.90;;;;;;5063790;28;20032;-73
2022/03/08 04:59:33;;;;;;;26.95;16.27;;;-0.70;99.90;;;;;;5097971;28;20479;-74
2022/03/08 05:01:59;;;;;;;27.58;16.63;;;-0.70;99.90;;;;;;5080948;28;20555;-72
2022/03/08 05:04:24;;;;;;;28.33;16.20;;;-0.70;99.90;;;;;;5069069;28;20044;-74
2022/03/08 05:06:50;;;;;;;26.65;15.57;;;-0.70;99.90;;;;;;5084583;28;20505;-74
2022/03/08 05:09:17;;;;;;;27.67;15.82;;;-0.70;99.90;;;;;;5082704;28;20033;-74
2022/03/08 05:11:43;;;;;;;27.58;16.88;;;-0.70;99.90;;;;;;5091251;28;20057;-73
2022/03/08 05:14:08;;;;;;;27.90;16.77;;;-0.70;99.90;;;;;;5077848;28;20076;-74
2022/03/08 05:16:34;;;;;;;29.42;17.23;;;-0.70;99.90;;;;;;5068809;28;20057;-73
2022/03/08 05:19:00;;;;;;;27.42;17.08;;;-0.70;99.90;;;;;;5080536;28;20131;-73
2022/03/08 05:21:26;;;;;;;27.33;16.58;;;-0.70;99.90;;;;;;5066651;28;20049;-73
2022/03/08 05:23:51;;;;;;;26.52;17.00;;;-0.80;99.90;;;;;;5076706;28;20049;-73
2022/03/08 05:26:17;;;;;;;27.67;16.17;;;-0.80;99.90;;;;;;5076385;28;20109;-72
2022/03/08 05:28:42;;;;;;;26.70;16.25;;;-0.80;99.90;;;;;;5079080;28;20091;-73
2022/03/08 05:31:12;;;;;;;25.98;15.80;;;-0.70;99.90;;;;;;5065998;28;20044;-71
2022/03/08 05:33:37;;;;;;;29.50;16.45;;;-0.80;99.90;;;;;;5084214;28;20052;-74
2022/03/08 05:36:03;;;;;;;27.65;17.23;;;-0.70;99.90;;;;;;5084181;28;20040;-73
2022/03/08 05:38:29;;;;;;;26.42;17.13;;;-0.80;99.90;;;;;;5082921;28;20104;-74
2022/03/08 05:40:55;;;;;;;27.15;16.05;;;-0.80;99.90;;;;;;5085919;28;20471;-73
2022/03/08 05:43:21;;;;;;;27.48;16.23;;;-0.80;99.90;;;;;;5075379;28;20045;-73
2022/03/08 05:45:47;;;;;;;24.13;15.48;;;-0.80;99.90;;;;;;5084254;28;20131;-73
2022/03/08 05:48:14;;;;;;;29.15;17.15;;;-0.80;99.90;;;;;;5084609;28;20051;-74
2022/03/08 05:50:39;;;;;;;28.52;16.70;;;-0.80;99.90;;;;;;5084670;28;20041;-73
2022/03/08 05:53:05;;;;;;;28.65;17.10;;;-0.80;99.90;;;;;;5084262;28;20043;-73
2022/03/08 05:55:31;;;;;;;27.48;16.02;;;-0.80;99.90;;;;;;5063582;28;20033;-73
2022/03/08 05:57:56;;;;;;;27.85;16.38;;;-0.80;99.90;;;;;;5050617;28;20063;-74
2022/03/08 06:00:22;;;;;;;27.83;15.85;;;-0.80;99.90;;;;;;5079478;28;20036;-73
2022/03/08 06:02:48;;;;;;;25.45;16.67;;;-0.80;99.90;;;;;;5068691;28;20063;-72
2022/03/08 06:05:13;;;;;;;26.40;16.80;;;-0.80;99.90;;;;;;5082805;28;20076;-74
2022/03/08 06:07:40;;;;;;;28.00;16.75;;;-0.80;99.90;;;;;;5063717;28;20059;-74
2022/03/08 06:10:08;;;;;;;28.42;16.75;;;-0.80;99.90;;;;;;5099864;28;20044;-73
2022/03/08 06:12:34;;;;;;;27.33;16.60;;;-0.90;99.90;;;;;;5085579;28;20082;-73
2022/03/08 06:15:00;;;;;;;30.30;17.00;;;-0.80;99.90;;;;;;5083599;28;20051;-73
2022/03/08 06:17:27;;;;;;;26.40;16.42;;;-0.90;99.90;;;;;;5072996;28;20037;-74
2022/03/08 06:19:52;;;;;;;28.55;17.52;;;-0.90;99.90;;;;;;5080021;28;20038;-73
2022/03/08 06:22:18;;;;;;;26.15;15.90;;;-0.80;99.90;;;;;;5081985;28;20039;-73
2022/03/08 06:24:44;;;;;;;29.75;16.58;;;-0.90;99.90;;;;;;5055753;28;20051;-73
2022/03/08 06:27:10;;;;;;;29.50;16.83;;;-0.80;99.90;;;;;;5088412;28;20037;-73
2022/03/08 06:29:36;;;;;;;27.35;16.42;;;-0.80;99.90;;;;;;5091357;28;20036;-75
2022/03/08 06:32:02;;;;;;;29.70;16.70;;;-0.80;99.90;;;;;;5084332;28;20391;-75
2022/03/08 06:34:28;;;;;;;26.17;16.33;;;-0.80;99.90;;;;;;5073902;28;20056;-73
2022/03/08 06:36:53;;;;;;;25.33;15.68;;;-0.80;99.90;;;;;;5089047;28;20048;-75
2022/03/08 06:39:19;;;;;;;25.20;16.48;;;-0.80;99.90;;;;;;5087829;28;20036;-74
2022/03/08 06:41:45;;;;;;;28.60;17.42;;;-0.80;99.90;;;;;;5088306;28;20042;-73
2022/03/08 06:44:11;;;;;;;29.45;16.58;;;-0.80;99.90;;;;;;5062708;28;20044;-72
2022/03/08 06:46:41;;;;;;;28.17;16.35;;;-0.70;99.90;;;;;;5080359;28;20044;-73
2022/03/08 06:49:07;;;;;;;;;;;-0.70;99.90;;;;;;5101207;28;20041;-73
2022/03/08 06:51:33;;;;;;;27.35;16.17;;;-0.70;99.90;;;;;;5084292;28;19916;-74
2022/03/08 06:53:59;;;;;;;27.25;16.33;;;-0.60;99.90;;;;;;5054493;28;20080;-72
2022/03/08 06:56:25;;;;;;;26.30;15.95;;;-0.60;99.90;;;;;;5081683;28;20052;-72
2022/03/08 06:58:54;;;;;;;29.23;15.90;;;-0.60;99.90;;;;;;5056794;28;20053;-74
2022/03/08 07:01:19;;;;;;;29.13;17.45;;;-0.50;99.90;;;;;;5067326;28;20036;-75
2022/03/08 07:03:45;;;;;;;27.50;16.98;;;-0.50;99.90;;;;;;5091554;28;20036;-74
2022/03/08 07:06:11;;;;;;;27.17;17.30;;;-0.40;99.90;;;;;;5071655;28;20054;-74
2022/03/08 07:08:37;;;;;;;30.08;17.80;;;-0.40;99.90;;;;;;5088751;28;20052;-74
2022/03/08 07:11:04;;;;;;;27.08;17.27;;;-0.30;99.90;;;;;;5066720;28;20048;-74
2022/03/08 07:13:31;;;;;;;29.23;17.90;;;-0.20;99.90;;;;;;5084349;28;20025;-73
2022/03/08 07:15:57;;;;;;;31.20;17.75;;;-0.20;99.90;;;;;;5076596;28;20515;-74
2022/03/08 07:18:23;;;;;;;27.10;17.08;;;-0.10;99.90;;;;;;5059033;28;20040;-73
2022/03/08 07:20:50;;;;;;;29.23;16.85;;;0.00;99.90;;;;;;5063472;28;20033;-75
2022/03/08 07:23:15;;;;;;;33.90;19.13;;;0.00;99.90;;;;;;5083175;28;20059;-74
2022/03/08 07:25:41;;;;;;;28.13;17.58;;;0.10;99.90;;;;;;5088943;28;20040;-74
2022/03/08 07:28:07;;;;;;;28.77;17.00;;;0.20;99.90;;;;;;5073662;28;20044;-75
2022/03/08 07:30:33;;;;;;;25.40;16.33;;;0.30;99.90;;;;;;5087705;28;20124;-74
2022/03/08 07:32:58;;;;;;;28.67;17.60;;;0.40;99.90;;;;;;5087266;28;20037;-74
2022/03/08 07:35:24;;;;;;;28.25;16.92;;;0.60;99.90;;;;;;5069233;28;20071;-74
2022/03/08 07:37:50;;;;;;;28.38;15.90;;;0.70;99.90;;;;;;5069601;28;20047;-75
2022/03/08 07:40:16;;;;;;;27.25;16.85;;;0.80;99.90;;;;;;5071650;28;20036;-74
2022/03/08 07:42:41;;;;;;;28.50;16.40;;;0.90;99.90;;;;;;5071173;28;20040;-73
2022/03/08 07:45:08;;;;;;;25.52;16.67;;;1.00;99.90;;;;;;5072012;28;20040;-74
2022/03/08 07:47:33;;;;;;;23.27;15.45;;;1.20;99.90;;;;;;5073375;28;20052;-74
2022/03/08 07:49:59;;;;;;;23.55;15.75;;;1.30;99.90;;;;;;5073139;28;20044;-72
2022/03/08 07:52:25;;;;;;;25.52;15.52;;;1.50;99.90;;;;;;5076932;28;20092;-74
2022/03/08 07:54:50;;;;;;;23.60;14.73;;;1.60;99.90;;;;;;5093611;28;20036;-74
2022/03/08 07:57:16;;;;;;;23.75;14.63;;;1.80;99.90;;;;;;5093728;28;20048;-75
2022/03/08 07:59:42;;;;;;;23.63;14.68;;;2.00;99.90;;;;;;5091708;28;20064;-74
2022/03/08 08:02:08;;;;;;;24.27;15.35;;;2.10;99.90;;;;;;5080323;28;20123;-75
2022/03/08 08:04:34;;;;;;;22.45;14.27;;;2.20;99.90;;;;;;5077783;28;20104;-74
2022/03/08 08:07:00;;;;;;;24.60;14.10;;;2.40;99.90;;;;;;5091296;28;20033;-73
2022/03/08 08:09:25;;;;;;;22.75;14.13;;;2.50;99.90;;;;;;5108596;28;20519;-75
2022/03/08 08:11:52;;;;;;;23.50;14.27;;;2.70;99.90;;;;;;5058648;28;20049;-74
2022/03/08 08:14:18;;;;;;;22.92;15.02;;;2.90;99.90;;;;;;5075584;28;20101;-74
2022/03/08 08:16:45;;;;;;;22.05;15.10;;;3.10;99.90;;;;;;5076009;28;20061;-74
2022/03/08 08:19:11;;;;;;;21.52;14.05;;;3.30;99.90;;;;;;5075850;28;20040;-74
2022/03/08 08:21:37;;;;;;;22.42;14.02;;;3.50;99.90;;;;;;5074457;28;20029;-73
2022/03/08 08:24:04;;;;;;;22.30;14.50;;;3.70;99.90;;;;;;5103948;28;20041;-75
2022/03/08 08:26:30;;;;;;;22.40;13.68;;;3.80;99.90;;;;;;5105920;28;20037;-74
2022/03/08 08:28:56;;;;;;;20.13;13.30;;;4.00;99.90;;;;;;5071755;28;20098;-74
2022/03/08 08:31:23;;;;;;;18.63;12.50;;;4.20;99.90;;;;;;5105138;28;20036;-74
2022/03/08 08:33:50;;;;;;;21.00;13.55;;;4.50;99.90;;;;;;5104820;28;20041;-75
2022/03/08 08:36:16;;;;;;;19.35;13.30;;;4.60;99.90;;;;;;5105128;28;20045;-74
2022/03/08 08:38:42;;;;;;;21.95;13.48;;;4.80;99.90;;;;;;5072422;28;20060;-74
2022/03/08 08:41:08;;;;;;;18.60;12.30;;;5.00;99.90;;;;;;5105423;28;20041;-76
2022/03/08 08:43:33;;;;;;;18.98;12.30;;;5.20;99.90;;;;;;5087844;28;20065;-74
2022/03/08 08:45:59;;;;;;;18.67;12.73;;;5.40;99.90;;;;;;5091269;28;20080;-75
2022/03/08 08:48:26;;;;;;;20.77;12.18;;;5.50;99.90;;;;;;5092334;28;20040;-75
2022/03/08 08:50:52;;;;;;;18.50;12.70;;;5.70;99.90;;;;;;5092673;28;20063;-74
2022/03/08 08:53:19;;;;;;;16.58;12.65;;;5.90;99.90;;;;;;5076312;28;20059;-75
2022/03/08 08:55:44;;;;;;;17.40;11.75;;;6.00;99.90;;;;;;5093245;28;20044;-74
2022/03/08 08:58:10;;;;;;;18.40;11.93;;;6.10;99.90;;;;;;5093094;28;20103;-74
2022/03/08 09:00:38;;;;;;;18.23;12.15;;;6.20;99.90;;;;;;5076856;28;20498;-78
2022/03/08 09:03:08;;;;;;;17.20;12.00;;;6.40;99.90;;;;;;5091537;28;20076;-74
2022/03/08 09:05:34;;;;;;;19.17;11.95;;;6.50;99.90;;;;;;5088328;28;20041;-75
2022/03/08 09:08:00;;;;;;;17.23;12.25;;;6.60;99.90;;;;;;5072145;28;20045;-76
2022/03/08 09:10:25;;;;;;;17.38;11.75;;;6.70;99.90;;;;;;5107626;28;20071;-76
2022/03/08 09:12:51;;;;;;;18.25;11.70;;;6.80;99.90;;;;;;5073327;28;20045;-75
2022/03/08 09:15:20;;;;;;;16.00;11.40;;;6.90;99.90;;;;;;5107528;28;20047;-75
2022/03/08 09:17:46;;;;;;;18.77;11.45;;;7.00;99.60;;;;;;5073524;28;20422;-76
2022/03/08 09:20:13;;;;;;;22.33;13.50;;;7.20;99.00;;;;;;5090296;28;20025;-75
2022/03/08 09:22:39;;;;;;;14.70;10.95;;;7.40;99.10;;;;;;5073063;28;20052;-76
2022/03/08 09:25:06;;;;;;;15.40;10.80;;;7.40;95.80;;;;;;5056004;28;20102;-76
2022/03/08 09:27:34;;;;;;;17.67;11.60;;;7.40;94.50;;;;;;5073567;28;20033;-77
2022/03/08 09:30:00;;;;;;;16.85;11.32;;;7.50;93.80;;;;;;5073422;28;20053;-77
2022/03/08 09:32:26;;;;;;;14.25;10.63;;;7.70;92.90;;;;;;5073298;28;20352;-76
2022/03/08 09:34:52;;;;;;;14.35;10.90;;;7.80;91.30;;;;;;5073340;28;20021;-75
2022/03/08 09:37:18;;;;;;;15.30;10.85;;;7.80;90.10;;;;;;5107553;28;20060;-76
2022/03/08 09:39:44;;;;;;;14.43;10.57;;;7.70;88.00;;;;;;5107321;28;20033;-76
2022/03/08 09:42:10;;;;;;;14.95;10.75;;;7.70;88.30;;;;;;5072774;28;20032;-75
2022/03/08 09:44:36;;;;;;;14.45;10.55;;;7.80;87.60;;;;;;5090069;28;20036;-76
2022/03/08 09:47:02;;;;;;;18.02;10.13;;;7.80;85.40;;;;;;5090306;28;20041;-75
2022/03/08 09:49:31;;;;;;;15.00;10.48;;;7.90;84.00;;;;;;5056535;28;20039;-75
2022/03/08 09:51:56;;;;;;;16.48;10.93;;;8.00;83.60;;;;;;5072606;28;20029;-74
2022/03/08 09:54:22;;;;;;;16.83;10.80;;;8.10;82.20;;;;;;5086681;28;20058;-78
2022/03/08 09:56:48;;;;;;;15.88;10.45;;;8.20;83.10;;;;;;5093133;28;20032;-74
2022/03/08 09:59:15;;;;;;;13.70;10.13;;;8.20;82.80;;;;;;5093496;28;20039;-76
2022/03/08 10:01:42;;;;;;;12.90;9.80;;;8.30;80.80;;;;;;5077352;28;20036;-75
2022/03/08 10:04:08;;;;;;;13.40;9.70;;;8.40;79.10;;;;;;5074275;28;20056;-74
2022/03/08 10:06:43;;;;;;;15.25;11.10;;;8.50;79.10;;;;;;5074028;28;20041;-74
2022/03/08 10:09:18;;;;;;;12.73;9.88;;;8.50;77.40;;;;;;5073528;28;20037;-73
2022/03/08 10:11:44;;;;;;;11.32;8.68;;;8.50;78.60;;;;;;5073598;28;20071;-74
2022/03/08 10:14:26;;;;;;;12.90;8.68;;;8.60;77.50;;;;;;5073957;28;20068;-75
2022/03/08 10:16:52;;;;;;;12.20;8.10;;;8.70;75.20;;;;;;5091185;28;20041;-74
2022/03/08 10:19:18;;;;;;;15.20;8.90;;;8.70;73.50;;;;;;5074286;28;20072;-74
2022/03/08 10:21:51;;;;;;;10.23;7.57;;;8.80;72.40;;;;;;5092417;28;20045;-73
2022/03/08 10:24:27;;;;;;;10.73;7.50;;;8.90;70.50;;;;;;5093928;28;20037;-74
2022/03/08 10:27:01;;;;;;;12.30;8.00;;;8.90;70.90;;;;;;5093783;28;20137;-73
2022/03/08 10:29:29;;;;;;;9.77;7.28;;;9.00;69.90;;;;;;5094220;28;20037;-73
2022/03/08 10:32:37;;;;;;;11.43;7.63;;;9.00;69.20;;;;;;5094512;28;20067;-74
2022/03/08 10:35:03;;;;;;;9.18;7.30;;;9.00;65.40;;;;;;5020796;28;20033;-73
2022/03/08 10:37:35;;;;;;;9.85;6.68;;;9.10;68.10;;;;;;5084555;28;20079;-75
2022/03/08 10:40:09;;;;;;;10.82;6.80;;;9.10;66.60;;;;;;5093543;28;20059;-76
2022/03/08 10:42:37;;;;;;;10.38;6.30;;;9.20;67.20;;;;;;5077598;28;20127;-73
2022/03/08 10:45:09;;;;;;;8.20;6.05;;;9.30;66.90;;;;;;5093447;28;20044;-74
2022/03/08 10:47:52;;;;;;;10.88;6.65;;;9.40;65.10;;;;;;5075639;28;20044;-73
2022/03/08 10:50:20;;;;;;;8.90;6.13;;;9.50;65.20;;;;;;5063062;28;20483;-74
2022/03/08 10:52:49;;;;;;;8.10;6.00;;;9.50;65.20;;;;;;5073651;28;20037;-74
2022/03/08 10:55:24;;;;;;;8.90;6.50;;;9.70;64.90;;;;;;5066186;28;20046;-78
2022/03/08 10:58:10;;;;;;;8.85;5.82;;;9.90;65.50;;;;;;5094442;28;20048;-76
2022/03/08 11:00:42;;;;;;;7.15;5.72;;;10.10;63.20;;;;;;5093802;28;20044;-76
2022/03/08 11:03:11;;;;;;;8.80;6.50;;;10.30;64.00;;;;;;5075385;28;20048;-76
2022/03/08 11:05:40;;;;;;;10.80;6.47;;;10.40;63.00;;;;;;5077881;28;20033;-75
2022/03/08 11:08:07;;;;;;;9.32;6.15;;;10.40;62.80;;;;;;5094325;28;20191;-75
2022/03/08 11:10:35;;;;;;;8.15;5.70;;;10.60;62.80;;;;;;5080465;28;20047;-76
2022/03/08 11:13:02;;;;;;;8.63;5.95;;;10.60;62.60;;;;;;5098632;28;20040;-75
2022/03/08 11:15:31;;;;;;;8.45;6.18;;;10.70;62.40;;;;;;5086284;28;20048;-76
2022/03/08 11:17:59;;;;;;;8.27;5.80;;;10.80;62.30;;;;;;5077867;28;20039;-76
2022/03/08 11:20:27;;;;;;;7.53;4.97;;;11.00;61.90;;;;;;5078437;28;20044;-77
2022/03/08 11:22:55;;;;;;;6.07;4.63;;;11.10;61.30;;;;;;5060996;28;20040;-76
2022/03/08 11:25:26;;;;;;;6.80;4.82;;;11.00;59.90;;;;;;5061119;28;20051;-76
2022/03/08 11:27:52;;;;;;;7.03;5.07;;;11.10;59.70;;;;;;5078239;28;20108;-76
2022/03/08 11:30:23;;;;;;;6.40;4.78;;;11.00;59.10;;;;;;5061809;28;20041;-76
2022/03/08 11:33:11;;;;;;;7.95;4.78;;;11.10;58.50;;;;;;5077719;28;20100;-76
2022/03/08 11:35:50;;;;;;;6.40;4.65;;;11.10;57.30;;;;;;5044501;28;20029;-76
2022/03/08 11:38:16;;;;;;;8.45;4.85;;;11.10;58.40;;;;;;5078536;28;20051;-77
2022/03/08 11:40:54;;;;;;;7.15;4.35;;;11.20;58.10;;;;;;5081856;28;20052;-77
2022/03/08 11:43:21;;;;;;;6.57;4.35;;;11.20;58.50;;;;;;5059883;28;20089;-76
2022/03/08 11:45:48;;;;;;;7.72;4.22;;;11.20;57.40;;;;;;5077272;28;20033;-77
2022/03/08 11:48:19;;;;;;;8.60;4.90;;;11.20;57.20;;;;;;5078043;28;20524;-75
2022/03/08 11:50:46;;;;;;;6.18;4.68;;;11.30;57.10;;;;;;5061452;28;20091;-76
2022/03/08 11:53:24;;;;;;;7.40;4.90;;;11.40;57.40;;;;;;5076553;28;20076;-76
2022/03/08 11:55:56;;;;;;;7.40;4.35;;;11.50;56.30;;;;;;5060702;28;20099;-78
2022/03/08 11:58:42;;;;;;;6.00;4.20;;;11.70;56.60;;;;;;5060893;28;20092;-77
2022/03/08 12:01:08;;;;;;;5.15;3.90;;;11.70;55.20;;;;;;5077064;28;20051;-76
2022/03/08 12:03:34;;;;;;;6.05;4.32;;;11.60;56.30;;;;;;5094092;28;20024;-76
2022/03/08 12:06:02;;;;;;;7.70;4.35;;;11.70;56.40;;;;;;5097958;28;20037;-75
2022/03/08 12:08:28;;;;;;;5.63;4.30;;;11.90;56.20;;;;;;5097963;28;20032;-76
2022/03/08 12:11:03;;;;;;;6.65;4.40;;;12.00;56.40;;;;;;5081080;28;20060;-76
2022/03/08 12:13:30;;;;;;;5.47;4.40;;;12.20;56.40;;;;;;5089998;28;20043;-75
2022/03/08 12:16:09;;;;;;;5.55;4.30;;;12.20;56.00;;;;;;5060918;28;20048;-75
2022/03/08 12:18:39;;;;;;;5.30;4.07;;;12.30;55.50;;;;;;5077434;28;20037;-75
2022/03/08 12:21:14;;;;;;;5.75;3.78;;;12.30;55.90;;;;;;5076580;28;20036;-75
2022/03/08 12:24:00;;;;;;;6.53;4.07;;;12.30;53.70;;;;;;5060932;28;20023;-75
2022/03/08 12:26:26;;;;;;;5.63;4.47;;;12.40;54.70;;;;;;5060619;28;20029;-76
2022/03/08 12:29:17;;;;;;;5.70;4.25;;;12.50;54.60;;;;;;5064612;28;20039;-76
2022/03/08 12:31:58;;;;;;;6.72;4.50;;;12.60;53.00;;;;;;5080665;28;20036;-78
2022/03/08 12:34:36;;;;;;;5.25;3.80;;;12.60;52.70;;;;;;5080748;28;20024;-77
2022/03/08 12:37:36;;;;;;;6.40;3.88;;;12.50;52.00;;;;;;5096934;28;20048;-75
2022/03/08 12:40:20;;;;;;;;;;;12.60;52.30;;;;;;5079885;28;20036;-76